sensor_id;sensor_type;location;lat;lon;timestamp;pressure;altitude;pressure_sealevel;temperature;humidity
47530;BME280;33272;51.922;7.730;2023-04-29T00:01:30;145682.63;;;12.83;100.00
47530;BME280;33272;51.922;7.730;2023-04-29T00:03:57;145683.88;;;12.84;100.00
47530;BME280;33272;51.922;7.730;2023-04-29T00:06:24;145688.91;;;12.86;100.00
47530;BME280;33272;51.922;7.730;2023-04-29T00:08:54;145672.41;;;12.79;100.00
47530;BME280;33272;51.922;7.730;2023-04-29T00:11:21;145673.69;;;12.80;100.00
47530;BME280;33272;51.922;7.730;2023-04-29T00:13:48;145647.03;;;12.69;100.00
47530;BME280;33272;51.922;7.730;2023-04-29T00:16:15;145635.63;;;12.64;100.00
47530;BME280;33272;51.922;7.730;2023-04-29T00:18:42;145639.41;;;12.66;100.00
47530;BME280;33272;51.922;7.730;2023-04-29T00:21:09;145624.19;;;12.60;100.00
47530;BME280;33272;51.922;7.730;2023-04-29T00:23:36;145593.72;;;12.47;100.00
47530;BME280;33272;51.922;7.730;2023-04-29T00:26:04;145579.72;;;12.42;100.00
47530;BME280;33272;51.922;7.730;2023-04-29T00:28:31;145540.38;;;12.26;100.00
47530;BME280;33272;51.922;7.730;2023-04-29T00:30:58;145540.38;;;12.26;100.00
47530;BME280;33272;51.922;7.730;2023-04-29T00:33:25;145551.84;;;12.31;100.00
47530;BME280;33272;51.922;7.730;2023-04-29T00:35:52;145520.09;;;12.18;100.00
47530;BME280;33272;51.922;7.730;2023-04-29T00:38:19;145508.66;;;12.13;100.00
47530;BME280;33272;51.922;7.730;2023-04-29T00:40:47;145515.00;;;12.16;100.00
47530;BME280;33272;51.922;7.730;2023-04-29T00:43:15;145503.63;;;12.11;100.00
47530;BME280;33272;51.922;7.730;2023-04-29T00:45:42;145515.00;;;12.16;100.00
47530;BME280;33272;51.922;7.730;2023-04-29T00:48:10;145520.09;;;12.18;100.00
47530;BME280;33272;51.922;7.730;2023-04-29T00:50:37;145506.13;;;12.12;100.00
47530;BME280;33272;51.922;7.730;2023-04-29T00:53:04;145511.22;;;12.14;100.00
47530;BME280;33272;51.922;7.730;2023-04-29T00:55:32;145497.25;;;12.09;100.00
47530;BME280;33272;51.922;7.730;2023-04-29T00:58:00;145488.38;;;12.05;100.00
47530;BME280;33272;51.922;7.730;2023-04-29T01:00:30;145503.63;;;12.11;100.00
47530;BME280;33272;51.922;7.730;2023-04-29T01:02:58;145473.16;;;11.99;100.00
47530;BME280;33272;51.922;7.730;2023-04-29T01:05:25;145461.72;;;11.94;100.00
47530;BME280;33272;51.922;7.730;2023-04-29T01:08:12;145436.31;;;11.84;100.00
47530;BME280;33272;51.922;7.730;2023-04-29T01:10:47;145446.47;;;11.88;100.00
47530;BME280;33272;51.922;7.730;2023-04-29T01:13:26;145429.94;;;11.81;100.00
47530;BME280;33272;51.922;7.730;2023-04-29T01:16:01;145437.59;;;11.85;100.00
47530;BME280;33272;51.922;7.730;2023-04-29T01:18:32;145422.34;;;11.78;100.00
47530;BME280;33272;51.922;7.730;2023-04-29T01:21:01;145388.09;;;11.65;100.00
47530;BME280;33272;51.922;7.730;2023-04-29T01:23:30;145400.81;;;11.70;100.00
47530;BME280;33272;51.922;7.730;2023-04-29T01:25:58;145412.19;;;11.74;100.00
47530;BME280;33272;51.922;7.730;2023-04-29T01:28:39;145384.25;;;11.63;100.00
47530;BME280;33272;51.922;7.730;2023-04-29T01:31:24;145381.75;;;11.62;100.00
47530;BME280;33272;51.922;7.730;2023-04-29T01:34:08;145377.97;;;11.60;100.00
47530;BME280;33272;51.922;7.730;2023-04-29T01:36:48;145361.47;;;11.54;100.00
47530;BME280;33272;51.922;7.730;2023-04-29T01:39:33;145361.47;;;11.54;100.00
47530;BME280;33272;51.922;7.730;2023-04-29T01:42:08;145369.09;;;11.57;100.00
47530;BME280;33272;51.922;7.730;2023-04-29T01:44:37;145353.88;;;11.51;100.00
47530;BME280;33272;51.922;7.730;2023-04-29T01:47:06;145333.56;;;11.43;100.00
47530;BME280;33272;51.922;7.730;2023-04-29T01:49:36;145334.81;;;11.43;100.00
47530;BME280;33272;51.922;7.730;2023-04-29T01:52:03;145334.81;;;11.43;100.00
47530;BME280;33272;51.922;7.730;2023-04-29T01:54:31;145322.16;;;11.38;100.00
47530;BME280;33272;51.922;7.730;2023-04-29T01:57:01;145318.31;;;11.36;100.00
47530;BME280;33272;51.922;7.730;2023-04-29T01:59:27;145327.19;;;11.40;100.00
47530;BME280;33272;51.922;7.730;2023-04-29T02:01:54;145317.06;;;11.36;100.00
47530;BME280;33272;51.922;7.730;2023-04-29T02:04:23;145317.06;;;11.36;100.00
47530;BME280;33272;51.922;7.730;2023-04-29T02:06:50;145311.97;;;11.34;100.00
47530;BME280;33272;51.922;7.730;2023-04-29T02:09:18;145306.94;;;11.32;100.00
47530;BME280;33272;51.922;7.730;2023-04-29T02:11:46;145306.94;;;11.32;100.00
47530;BME280;33272;51.922;7.730;2023-04-29T02:14:13;145318.31;;;11.36;100.00
47530;BME280;33272;51.922;7.730;2023-04-29T02:16:43;145317.06;;;11.36;100.00
47530;BME280;33272;51.922;7.730;2023-04-29T02:19:10;145311.97;;;11.34;100.00
47530;BME280;33272;51.922;7.730;2023-04-29T02:21:37;145310.72;;;11.33;100.00
47530;BME280;33272;51.922;7.730;2023-04-29T02:24:05;145308.19;;;11.32;100.00
47530;BME280;33272;51.922;7.730;2023-04-29T02:26:32;145292.97;;;11.26;100.00
47530;BME280;33272;51.922;7.730;2023-04-29T02:29:01;145279.03;;;11.21;100.00
47530;BME280;33272;51.922;7.730;2023-04-29T02:31:28;145290.41;;;11.25;100.00
47530;BME280;33272;51.922;7.730;2023-04-29T02:33:55;145281.53;;;11.22;100.00
47530;BME280;33272;51.922;7.730;2023-04-29T02:36:22;145263.78;;;11.14;100.00
47530;BME280;33272;51.922;7.730;2023-04-29T02:38:50;145267.63;;;11.16;100.00
47530;BME280;33272;51.922;7.730;2023-04-29T02:41:18;145261.28;;;11.13;100.00
47530;BME280;33272;51.922;7.730;2023-04-29T02:43:45;145273.94;;;11.19;100.00
47530;BME280;33272;51.922;7.730;2023-04-29T02:46:15;145276.50;;;11.20;100.00
47530;BME280;33272;51.922;7.730;2023-04-29T02:48:43;145254.94;;;11.11;100.00
47530;BME280;33272;51.922;7.730;2023-04-29T02:51:10;145251.09;;;11.09;100.00
47530;BME280;33272;51.922;7.730;2023-04-29T02:53:37;145251.09;;;11.09;100.00
47530;BME280;33272;51.922;7.730;2023-04-29T02:56:04;145240.97;;;11.05;100.00
47530;BME280;33272;51.922;7.730;2023-04-29T02:58:31;145252.41;;;11.10;100.00
47530;BME280;33272;51.922;7.730;2023-04-29T03:00:58;145262.53;;;11.14;100.00
47530;BME280;33272;51.922;7.730;2023-04-29T03:03:27;145263.78;;;11.14;100.00
47530;BME280;33272;51.922;7.730;2023-04-29T03:05:54;145268.88;;;11.17;100.00
47530;BME280;33272;51.922;7.730;2023-04-29T03:08:21;145260.03;;;11.13;100.00
47530;BME280;33272;51.922;7.730;2023-04-29T03:10:49;145267.63;;;11.16;100.00
47530;BME280;33272;51.922;7.730;2023-04-29T03:13:16;145265.06;;;11.15;100.00
47530;BME280;33272;51.922;7.730;2023-04-29T03:15:43;145253.66;;;11.10;100.00
47530;BME280;33272;51.922;7.730;2023-04-29T03:18:10;145252.41;;;11.10;100.00
47530;BME280;33272;51.922;7.730;2023-04-29T03:20:38;145258.72;;;11.12;100.00
47530;BME280;33272;51.922;7.730;2023-04-29T03:23:05;145246.06;;;11.07;100.00
47530;BME280;33272;51.922;7.730;2023-04-29T03:25:32;145237.19;;;11.04;100.00
47530;BME280;33272;51.922;7.730;2023-04-29T03:27:59;145243.50;;;11.06;100.00
47530;BME280;33272;51.922;7.730;2023-04-29T03:30:26;145237.19;;;11.04;100.00
47530;BME280;33272;51.922;7.730;2023-04-29T03:32:53;145244.81;;;11.07;100.00
47530;BME280;33272;51.922;7.730;2023-04-29T03:35:20;145251.09;;;11.09;100.00
47530;BME280;33272;51.922;7.730;2023-04-29T03:37:48;145249.84;;;11.09;100.00
47530;BME280;33272;51.922;7.730;2023-04-29T03:40:15;145244.81;;;11.07;100.00
47530;BME280;33272;51.922;7.730;2023-04-29T03:42:42;145242.22;;;11.06;100.00
47530;BME280;33272;51.922;7.730;2023-04-29T03:45:10;145252.41;;;11.10;100.00
47530;BME280;33272;51.922;7.730;2023-04-29T03:47:38;145268.88;;;11.17;100.00
47530;BME280;33272;51.922;7.730;2023-04-29T03:50:07;145270.16;;;11.17;100.00
47530;BME280;33272;51.922;7.730;2023-04-29T03:52:34;145268.88;;;11.17;100.00
47530;BME280;33272;51.922;7.730;2023-04-29T03:55:04;145276.50;;;11.20;100.00
47530;BME280;33272;51.922;7.730;2023-04-29T03:57:31;145276.50;;;11.20;100.00
47530;BME280;33272;51.922;7.730;2023-04-29T03:59:58;145281.53;;;11.22;100.00
47530;BME280;33272;51.922;7.730;2023-04-29T04:02:26;145279.03;;;11.21;100.00
47530;BME280;33272;51.922;7.730;2023-04-29T04:04:53;145285.38;;;11.23;100.00
47530;BME280;33272;51.922;7.730;2023-04-29T04:07:20;145287.88;;;11.24;100.00
47530;BME280;33272;51.922;7.730;2023-04-29T04:09:47;145263.78;;;11.14;100.00
47530;BME280;33272;51.922;7.730;2023-04-29T04:12:15;145272.66;;;11.18;100.00
47530;BME280;33272;51.922;7.730;2023-04-29T04:14:42;145279.03;;;11.21;100.00
47530;BME280;33272;51.922;7.730;2023-04-29T04:17:09;145280.28;;;11.21;100.00
47530;BME280;33272;51.922;7.730;2023-04-29T04:19:36;145287.88;;;11.24;100.00
47530;BME280;33272;51.922;7.730;2023-04-29T04:22:03;145267.63;;;11.16;100.00
47530;BME280;33272;51.922;7.730;2023-04-29T04:24:30;145273.94;;;11.19;100.00
47530;BME280;33272;51.922;7.730;2023-04-29T04:26:57;145284.09;;;11.23;100.00
47530;BME280;33272;51.922;7.730;2023-04-29T04:29:25;145292.97;;;11.26;100.00
47530;BME280;33272;51.922;7.730;2023-04-29T04:31:52;145292.97;;;11.26;100.00
47530;BME280;33272;51.922;7.730;2023-04-29T04:34:20;145294.25;;;11.27;100.00
47530;BME280;33272;51.922;7.730;2023-04-29T04:36:47;145294.25;;;11.27;100.00
47530;BME280;33272;51.922;7.730;2023-04-29T04:39:14;145281.53;;;11.22;100.00
47530;BME280;33272;51.922;7.730;2023-04-29T04:41:41;145287.88;;;11.24;100.00
47530;BME280;33272;51.922;7.730;2023-04-29T04:44:08;145267.63;;;11.16;100.00
47530;BME280;33272;51.922;7.730;2023-04-29T04:46:36;145276.50;;;11.20;100.00
47530;BME280;33272;51.922;7.730;2023-04-29T04:49:03;145286.63;;;11.24;100.00
47530;BME280;33272;51.922;7.730;2023-04-29T04:51:30;145286.63;;;11.24;100.00
47530;BME280;33272;51.922;7.730;2023-04-29T04:53:57;145275.22;;;11.19;100.00
47530;BME280;33272;51.922;7.730;2023-04-29T04:56:24;145277.75;;;11.20;100.00
47530;BME280;33272;51.922;7.730;2023-04-29T04:58:51;145273.94;;;11.19;100.00
47530;BME280;33272;51.922;7.730;2023-04-29T05:01:18;145271.41;;;11.18;100.00
47530;BME280;33272;51.922;7.730;2023-04-29T05:03:47;145270.16;;;11.17;100.00
47530;BME280;33272;51.922;7.730;2023-04-29T05:06:14;145266.31;;;11.16;100.00
47530;BME280;33272;51.922;7.730;2023-04-29T05:08:41;145252.41;;;11.10;100.00
47530;BME280;33272;51.922;7.730;2023-04-29T05:11:15;145243.50;;;11.06;100.00
47530;BME280;33272;51.922;7.730;2023-04-29T05:13:43;145242.22;;;11.06;100.00
47530;BME280;33272;51.922;7.730;2023-04-29T05:16:10;145233.38;;;11.02;100.00
47530;BME280;33272;51.922;7.730;2023-04-29T05:18:37;145225.75;;;10.99;100.00
47530;BME280;33272;51.922;7.730;2023-04-29T05:21:06;145223.22;;;10.98;100.00
47530;BME280;33272;51.922;7.730;2023-04-29T05:23:33;145221.97;;;10.98;100.00
47530;BME280;33272;51.922;7.730;2023-04-29T05:26:00;145223.22;;;10.98;100.00
47530;BME280;33272;51.922;7.730;2023-04-29T05:28:27;145221.97;;;10.98;100.00
47530;BME280;33272;51.922;7.730;2023-04-29T05:30:54;145220.72;;;10.97;100.00
47530;BME280;33272;51.922;7.730;2023-04-29T05:33:21;145221.97;;;10.98;100.00
47530;BME280;33272;51.922;7.730;2023-04-29T05:35:48;145211.78;;;10.94;100.00
47530;BME280;33272;51.922;7.730;2023-04-29T05:38:17;145183.94;;;10.82;100.00
47530;BME280;33272;51.922;7.730;2023-04-29T05:40:44;145188.97;;;10.84;100.00
47530;BME280;33272;51.922;7.730;2023-04-29T05:43:11;145187.72;;;10.84;100.00
47530;BME280;33272;51.922;7.730;2023-04-29T05:45:38;145199.16;;;10.88;100.00
47530;BME280;33272;51.922;7.730;2023-04-29T05:48:05;145209.28;;;10.93;100.00
47530;BME280;33272;51.922;7.730;2023-04-29T05:50:34;145216.88;;;10.96;100.00
47530;BME280;33272;51.922;7.730;2023-04-29T05:53:01;145215.63;;;10.95;100.00
47530;BME280;33272;51.922;7.730;2023-04-29T05:55:29;145210.53;;;10.93;100.00
47530;BME280;33272;51.922;7.730;2023-04-29T05:57:56;145188.97;;;10.84;100.00
47530;BME280;33272;51.922;7.730;2023-04-29T06:00:23;145195.31;;;10.87;100.00
47530;BME280;33272;51.922;7.730;2023-04-29T06:02:50;145201.66;;;10.89;100.00
47530;BME280;33272;51.922;7.730;2023-04-29T06:05:17;145197.88;;;10.88;100.00
47530;BME280;33272;51.922;7.730;2023-04-29T06:07:44;145188.97;;;10.84;100.00
47530;BME280;33272;51.922;7.730;2023-04-29T06:10:11;145186.47;;;10.83;100.00
47530;BME280;33272;51.922;7.730;2023-04-29T06:12:40;145180.09;;;10.81;100.00
47530;BME280;33272;51.922;7.730;2023-04-29T06:15:07;145195.31;;;10.87;100.00
47530;BME280;33272;51.922;7.730;2023-04-29T06:17:35;145201.66;;;10.89;100.00
47530;BME280;33272;51.922;7.730;2023-04-29T06:20:02;145201.66;;;10.89;100.00
47530;BME280;33272;51.922;7.730;2023-04-29T06:22:29;145213.09;;;10.94;100.00
47530;BME280;33272;51.922;7.730;2023-04-29T06:24:56;145211.78;;;10.94;100.00
47530;BME280;33272;51.922;7.730;2023-04-29T06:27:23;145195.31;;;10.87;100.00
47530;BME280;33272;51.922;7.730;2023-04-29T06:29:52;145204.19;;;10.90;100.00
47530;BME280;33272;51.922;7.730;2023-04-29T06:32:18;145192.81;;;10.86;100.00
47530;BME280;33272;51.922;7.730;2023-04-29T06:34:46;145196.56;;;10.87;100.00
47530;BME280;33272;51.922;7.730;2023-04-29T06:37:13;145215.63;;;10.95;100.00
47530;BME280;33272;51.922;7.730;2023-04-29T06:39:39;145223.22;;;10.98;100.00
47530;BME280;33272;51.922;7.730;2023-04-29T06:42:06;145221.97;;;10.98;100.00
47530;BME280;33272;51.922;7.730;2023-04-29T06:44:33;145230.84;;;11.01;100.00
47530;BME280;33272;51.922;7.730;2023-04-29T06:47:02;145234.63;;;11.03;100.00
47530;BME280;33272;51.922;7.730;2023-04-29T06:49:29;145238.44;;;11.04;100.00
47530;BME280;33272;51.922;7.730;2023-04-29T06:51:56;145252.41;;;11.10;100.00
47530;BME280;33272;51.922;7.730;2023-04-29T06:54:24;145268.88;;;11.17;100.00
47530;BME280;33272;51.922;7.730;2023-04-29T06:56:52;145285.38;;;11.23;100.00
47530;BME280;33272;51.922;7.730;2023-04-29T06:59:19;145301.84;;;11.30;100.00
47530;BME280;33272;51.922;7.730;2023-04-29T07:01:46;145294.25;;;11.27;100.00
47530;BME280;33272;51.922;7.730;2023-04-29T07:04:14;145296.75;;;11.28;100.00
47530;BME280;33272;51.922;7.730;2023-04-29T07:06:41;145308.19;;;11.32;100.00
47530;BME280;33272;51.922;7.730;2023-04-29T07:09:11;145304.38;;;11.31;100.00
47530;BME280;33272;51.922;7.730;2023-04-29T07:11:38;145327.19;;;11.40;100.00
47530;BME280;33272;51.922;7.730;2023-04-29T07:14:05;145342.44;;;11.46;100.00
47530;BME280;33272;51.922;7.730;2023-04-29T07:16:32;145347.50;;;11.48;100.00
47530;BME280;33272;51.922;7.730;2023-04-29T07:18:59;145371.63;;;11.58;100.00
47530;BME280;33272;51.922;7.730;2023-04-29T07:21:28;145390.63;;;11.66;100.00
47530;BME280;33272;51.922;7.730;2023-04-29T07:23:56;145403.31;;;11.71;100.00
47530;BME280;33272;51.922;7.730;2023-04-29T07:26:25;145407.09;;;11.72;100.00
47530;BME280;33272;51.922;7.730;2023-04-29T07:28:52;145424.91;;;11.79;100.00
47530;BME280;33272;51.922;7.730;2023-04-29T07:31:19;145432.50;;;11.82;100.00
47530;BME280;33272;51.922;7.730;2023-04-29T07:33:47;145446.47;;;11.88;100.00
47530;BME280;33272;51.922;7.730;2023-04-29T07:36:14;145460.44;;;11.94;100.00
47530;BME280;33272;51.922;7.730;2023-04-29T07:38:42;145478.19;;;12.01;100.00
47530;BME280;33272;51.922;7.730;2023-04-29T07:41:10;145468.06;;;11.97;100.00
47530;BME280;33272;51.922;7.730;2023-04-29T07:43:37;145484.56;;;12.03;100.00
47530;BME280;33272;51.922;7.730;2023-04-29T07:46:04;145503.63;;;12.11;100.00
47530;BME280;33272;51.922;7.730;2023-04-29T07:48:36;145517.53;;;12.17;100.00
47530;BME280;33272;51.922;7.730;2023-04-29T07:51:04;145520.09;;;12.18;100.00
47530;BME280;33272;51.922;7.730;2023-04-29T07:53:31;145535.34;;;12.24;100.00
47530;BME280;33272;51.922;7.730;2023-04-29T07:56:04;145537.88;;;12.25;100.00
47530;BME280;33272;51.922;7.730;2023-04-29T07:58:32;145560.72;;;12.34;100.00
47530;BME280;33272;51.922;7.730;2023-04-29T08:01:05;145578.47;;;12.41;100.00
47530;BME280;33272;51.922;7.730;2023-04-29T08:03:33;145608.94;;;12.53;100.00
47530;BME280;33272;51.922;7.730;2023-04-29T08:06:01;145659.75;;;12.74;100.00
47530;BME280;33272;51.922;7.730;2023-04-29T08:08:29;145709.25;;;12.94;100.00
47530;BME280;33272;51.922;7.730;2023-04-29T08:10:56;145749.88;;;13.10;100.00
47530;BME280;33272;51.922;7.730;2023-04-29T08:13:25;145785.53;;;13.25;100.00
47530;BME280;33272;51.922;7.730;2023-04-29T08:15:52;145810.91;;;13.35;100.00
47530;BME280;33272;51.922;7.730;2023-04-29T08:18:19;145845.19;;;13.49;100.00
47530;BME280;33272;51.922;7.730;2023-04-29T08:20:47;145874.44;;;13.60;100.00
47530;BME280;33272;51.922;7.730;2023-04-29T08:23:15;145863.03;;;13.56;100.00
47530;BME280;33272;51.922;7.730;2023-04-29T08:25:42;145851.56;;;13.51;100.00
47530;BME280;33272;51.922;7.730;2023-04-29T08:28:09;145865.56;;;13.57;100.00
47530;BME280;33272;51.922;7.730;2023-04-29T08:30:39;145857.94;;;13.54;100.00
47530;BME280;33272;51.922;7.730;2023-04-29T08:33:06;145898.56;;;13.70;100.00
47530;BME280;33272;51.922;7.730;2023-04-29T08:35:34;145948.13;;;13.90;100.00
47530;BME280;33272;51.922;7.730;2023-04-29T08:38:03;145979.91;;;14.03;100.00
47530;BME280;33272;51.922;7.730;2023-04-29T08:40:33;146014.25;;;14.17;100.00
47530;BME280;33272;51.922;7.730;2023-04-29T08:43:02;146019.34;;;14.19;100.00
47530;BME280;33272;51.922;7.730;2023-04-29T08:45:30;146042.19;;;14.28;100.00
47530;BME280;33272;51.922;7.730;2023-04-29T08:48:01;146030.75;;;14.23;100.00
47530;BME280;33272;51.922;7.730;2023-04-29T08:50:29;146010.41;;;14.15;100.00
47530;BME280;33272;51.922;7.730;2023-04-29T08:52:57;145996.47;;;14.09;100.00
47530;BME280;33272;51.922;7.730;2023-04-29T08:55:24;146002.78;;;14.12;100.00
47530;BME280;33272;51.922;7.730;2023-04-29T08:57:54;145992.63;;;14.08;100.00
47530;BME280;33272;51.922;7.730;2023-04-29T09:00:23;145993.88;;;14.08;100.00
47530;BME280;33272;51.922;7.730;2023-04-29T09:02:53;145977.38;;;14.02;100.00
47530;BME280;33272;51.922;7.730;2023-04-29T09:05:24;146012.97;;;14.16;100.00
47530;BME280;33272;51.922;7.730;2023-04-29T09:07:51;146046.03;;;14.29;100.00
47530;BME280;33272;51.922;7.730;2023-04-29T09:10:19;146026.94;;;14.22;100.00
47530;BME280;33272;51.922;7.730;2023-04-29T09:12:46;146015.50;;;14.17;100.00
47530;BME280;33272;51.922;7.730;2023-04-29T09:15:14;146028.22;;;14.22;100.00
47530;BME280;33272;51.922;7.730;2023-04-29T09:17:43;146040.91;;;14.27;100.00
47530;BME280;33272;51.922;7.730;2023-04-29T09:20:32;146061.28;;;14.35;100.00
47530;BME280;33272;51.922;7.730;2023-04-29T09:23:01;146100.75;;;14.51;100.00
47530;BME280;33272;51.922;7.730;2023-04-29T09:25:28;146127.44;;;14.62;100.00
47530;BME280;33272;51.922;7.730;2023-04-29T09:27:56;146161.78;;;14.76;100.00
47530;BME280;33272;51.922;7.730;2023-04-29T09:30:24;146202.47;;;14.92;100.00
47530;BME280;33272;51.922;7.730;2023-04-29T09:33:06;146220.28;;;14.99;100.00
47530;BME280;33272;51.922;7.730;2023-04-29T09:35:36;146272.44;;;15.20;100.00
47530;BME280;33272;51.922;7.730;2023-04-29T09:38:11;146315.69;;;15.38;100.00
47530;BME280;33272;51.922;7.730;2023-04-29T09:40:39;146376.78;;;15.62;100.00
47530;BME280;33272;51.922;7.730;2023-04-29T09:43:13;146408.63;;;15.75;100.00
47530;BME280;33272;51.922;7.730;2023-04-29T09:45:42;146393.38;;;15.69;100.00
47530;BME280;33272;51.922;7.730;2023-04-29T09:48:11;146423.91;;;15.81;100.00
47530;BME280;33272;51.922;7.730;2023-04-29T09:50:41;146437.94;;;15.87;100.00
47530;BME280;33272;51.922;7.730;2023-04-29T09:53:10;146471.00;;;16.00;100.00
47530;BME280;33272;51.922;7.730;2023-04-29T09:55:57;146469.75;;;15.99;100.00
47530;BME280;33272;51.922;7.730;2023-04-29T09:58:27;146485.03;;;16.06;100.00
47530;BME280;33272;51.922;7.730;2023-04-29T10:00:58;146509.22;;;16.15;100.00
47530;BME280;33272;51.922;7.730;2023-04-29T10:03:31;146552.47;;;16.33;100.00
47530;BME280;33272;51.922;7.730;2023-04-29T10:06:02;146588.16;;;16.47;100.00
47530;BME280;33272;51.922;7.730;2023-04-29T10:08:31;146612.34;;;16.57;100.00
47530;BME280;33272;51.922;7.730;2023-04-29T10:11:00;146635.28;;;16.66;100.00
47530;BME280;33272;51.922;7.730;2023-04-29T10:13:28;146667.16;;;16.79;100.00
47530;BME280;33272;51.922;7.730;2023-04-29T10:16:00;146673.53;;;16.81;100.00
47530;BME280;33272;51.922;7.730;2023-04-29T10:18:35;146704.13;;;16.94;100.00
47530;BME280;33272;51.922;7.730;2023-04-29T10:21:07;146699.00;;;16.91;100.00
47530;BME280;33272;51.922;7.730;2023-04-29T10:23:35;146709.19;;;16.96;100.00
47530;BME280;33272;51.922;7.730;2023-04-29T10:26:03;146709.19;;;16.96;100.00
47530;BME280;33272;51.922;7.730;2023-04-29T10:28:32;146770.34;;;17.20;100.00
47530;BME280;33272;51.922;7.730;2023-04-29T10:31:01;146834.06;;;17.46;100.00
47530;BME280;33272;51.922;7.730;2023-04-29T10:33:31;146890.16;;;17.68;100.00
47530;BME280;33272;51.922;7.730;2023-04-29T10:35:59;146934.81;;;17.86;100.00
47530;BME280;33272;51.922;7.730;2023-04-29T10:38:32;146929.72;;;17.84;100.00
47530;BME280;33272;51.922;7.730;2023-04-29T10:41:08;146982.00;;;18.05;100.00
47530;BME280;33272;51.922;7.730;2023-04-29T10:43:36;147001.16;;;18.13;100.00
47530;BME280;33272;51.922;7.730;2023-04-29T10:46:20;146976.88;;;18.03;97.02
47530;BME280;33272;51.922;7.730;2023-04-29T10:48:49;146948.88;;;17.92;100.00
47530;BME280;33272;51.922;7.730;2023-04-29T10:51:39;146911.88;;;17.77;98.00
47530;BME280;33272;51.922;7.730;2023-04-29T10:54:11;146915.72;;;17.78;99.92
47530;BME280;33272;51.922;7.730;2023-04-29T10:56:41;146928.44;;;17.83;99.49
47530;BME280;33272;51.922;7.730;2023-04-29T10:59:13;146918.25;;;17.79;97.96
47530;BME280;33272;51.922;7.730;2023-04-29T11:01:45;146882.50;;;17.65;98.50
47530;BME280;33272;51.922;7.730;2023-04-29T11:04:13;146831.53;;;17.45;96.54
47530;BME280;33272;51.922;7.730;2023-04-29T11:06:47;146756.34;;;17.14;97.82
47530;BME280;33272;51.922;7.730;2023-04-29T11:09:25;146727.06;;;17.03;93.99
47530;BME280;33272;51.922;7.730;2023-04-29T11:11:59;146790.75;;;17.28;97.78
47530;BME280;33272;51.922;7.730;2023-04-29T11:14:31;146853.22;;;17.53;98.49
47530;BME280;33272;51.922;7.730;2023-04-29T11:17:01;146915.72;;;17.78;96.73
47530;BME280;33272;51.922;7.730;2023-04-29T11:19:32;146974.34;;;18.02;96.80
47530;BME280;33272;51.922;7.730;2023-04-29T11:22:24;147027.91;;;18.23;92.55
47530;BME280;33272;51.922;7.730;2023-04-29T11:24:55;147067.44;;;18.39;95.05
47530;BME280;33272;51.922;7.730;2023-04-29T11:27:26;147035.56;;;18.26;94.21
47530;BME280;33272;51.922;7.730;2023-04-29T11:29:57;147067.44;;;18.39;94.21
47530;BME280;33272;51.922;7.730;2023-04-29T11:32:24;147068.72;;;18.40;93.72
47530;BME280;33272;51.922;7.730;2023-04-29T11:34:52;147038.09;;;18.27;92.99
47530;BME280;33272;51.922;7.730;2023-04-29T11:37:23;147040.69;;;18.28;91.81
47530;BME280;33272;51.922;7.730;2023-04-29T11:39:59;146999.84;;;18.12;91.80
47530;BME280;33272;51.922;7.730;2023-04-29T11:42:27;146897.78;;;17.71;92.87
47530;BME280;33272;51.922;7.730;2023-04-29T11:44:54;146913.16;;;17.77;91.74
47530;BME280;33272;51.922;7.730;2023-04-29T11:47:26;146876.16;;;17.63;92.93
47530;BME280;33272;51.922;7.730;2023-04-29T11:50:03;146848.09;;;17.51;86.63
47530;BME280;33272;51.922;7.730;2023-04-29T11:52:30;146859.59;;;17.56;92.30
47530;BME280;33272;51.922;7.730;2023-04-29T11:54:59;146837.91;;;17.47;91.43
47530;BME280;33272;51.922;7.730;2023-04-29T11:57:26;146843.00;;;17.49;91.43
47530;BME280;33272;51.922;7.730;2023-04-29T11:59:53;146835.34;;;17.46;90.92
47530;BME280;33272;51.922;7.730;2023-04-29T12:02:21;146832.81;;;17.45;91.50
47530;BME280;33272;51.922;7.730;2023-04-29T12:04:48;146823.88;;;17.42;91.51
47530;BME280;33272;51.922;7.730;2023-04-29T12:07:15;146813.72;;;17.37;91.34
47530;BME280;33272;51.922;7.730;2023-04-29T12:09:43;146823.88;;;17.42;91.63
47530;BME280;33272;51.922;7.730;2023-04-29T12:12:13;146865.94;;;17.58;90.92
47530;BME280;33272;51.922;7.730;2023-04-29T12:14:41;146902.91;;;17.73;90.05
47530;BME280;33272;51.922;7.730;2023-04-29T12:17:09;146899.09;;;17.72;90.25
47530;BME280;33272;51.922;7.730;2023-04-29T12:19:36;146890.16;;;17.68;88.87
47530;BME280;33272;51.922;7.730;2023-04-29T12:22:05;146928.44;;;17.83;90.17
47530;BME280;33272;51.922;7.730;2023-04-29T12:24:33;146982.00;;;18.05;89.63
47530;BME280;33272;51.922;7.730;2023-04-29T12:27:02;147021.53;;;18.21;88.98
47530;BME280;33272;51.922;7.730;2023-04-29T12:29:30;147075.09;;;18.42;89.04
47530;BME280;33272;51.922;7.730;2023-04-29T12:31:58;147115.91;;;18.59;88.32
47530;BME280;33272;51.922;7.730;2023-04-29T12:34:25;147145.25;;;18.70;86.92
47530;BME280;33272;51.922;7.730;2023-04-29T12:36:55;147154.22;;;18.74;85.94
47530;BME280;33272;51.922;7.730;2023-04-29T12:39:22;147146.53;;;18.71;85.62
47530;BME280;33272;51.922;7.730;2023-04-29T12:41:53;147147.78;;;18.71;85.12
47530;BME280;33272;51.922;7.730;2023-04-29T12:44:21;147140.13;;;18.68;85.63
47530;BME280;33272;51.922;7.730;2023-04-29T12:46:49;147137.59;;;18.67;85.26
47530;BME280;33272;51.922;7.730;2023-04-29T12:49:17;147109.53;;;18.56;85.67